createdAt,value
2018-09-21T00:02:25.335Z,7.50
2018-09-21T00:04:54.639Z,7.10
2018-09-21T00:07:23.944Z,6.90
2018-09-21T00:09:53.329Z,7.83
2018-09-21T00:12:22.556Z,8.00
2018-09-21T00:14:51.517Z,7.47
2018-09-21T00:17:20.676Z,8.17
2018-09-21T00:19:49.548Z,8.10
2018-09-21T00:22:18.669Z,8.23
2018-09-21T00:24:47.535Z,8.47
2018-09-21T00:27:16.512Z,8.03
2018-09-21T00:29:45.432Z,8.20
2018-09-21T00:32:14.410Z,8.57
2018-09-21T00:34:43.252Z,9.27
2018-09-21T00:37:12.865Z,8.33
2018-09-21T00:39:41.937Z,8.40
2018-09-21T00:42:11.029Z,8.37
2018-09-21T00:44:39.961Z,8.43
2018-09-21T00:47:08.833Z,7.73
2018-09-21T00:49:37.736Z,8.87
2018-09-21T00:52:06.939Z,8.20
2018-09-21T00:54:36.044Z,8.87
2018-09-21T00:57:04.968Z,8.63
2018-09-21T00:59:34.055Z,8.60
2018-09-21T01:02:03.139Z,8.57
2018-09-21T01:04:36.216Z,8.67
2018-09-21T01:07:05.087Z,9.00
2018-09-21T01:09:34.012Z,8.17
2018-09-21T01:12:03.026Z,8.37
2018-09-21T01:14:32.321Z,8.30
2018-09-21T01:17:01.323Z,8.77
2018-09-21T01:19:30.648Z,8.67
2018-09-21T01:22:00.464Z,8.80
2018-09-21T01:24:29.963Z,8.67
2018-09-21T01:26:58.969Z,8.90
2018-09-21T01:29:28.011Z,9.60
2018-09-21T01:31:56.865Z,9.17
2018-09-21T01:34:26.314Z,10.30
2018-09-21T01:36:55.378Z,10.20
2018-09-21T01:39:24.825Z,9.87
2018-09-21T01:41:54.096Z,9.43
2018-09-21T01:44:23.090Z,11.33
2018-09-21T01:46:52.424Z,10.93
2018-09-21T01:49:21.392Z,10.67
2018-09-21T01:51:50.487Z,10.90
2018-09-21T01:54:19.492Z,13.23
2018-09-21T01:56:48.476Z,14.83
2018-09-21T01:59:17.585Z,15.10
2018-09-21T02:01:46.635Z,14.70
2018-09-21T02:04:15.491Z,15.60
2018-09-21T02:06:44.545Z,16.43
2018-09-21T02:09:13.480Z,15.93
2018-09-21T02:11:42.416Z,15.87
2018-09-21T02:14:11.453Z,16.80
2018-09-21T02:16:40.610Z,16.40
2018-09-21T02:19:09.667Z,17.27
2018-09-21T02:21:38.687Z,16.43
2018-09-21T02:24:07.872Z,17.30
2018-09-21T02:26:37.427Z,18.87
2018-09-21T02:29:06.336Z,23.17
2018-09-21T02:31:35.665Z,26.83
2018-09-21T02:34:04.661Z,25.93
2018-09-21T02:36:33.697Z,29.77
2018-09-21T02:39:02.917Z,39.87
2018-09-21T02:41:31.857Z,39.23
2018-09-21T02:44:01.123Z,42.03
2018-09-21T02:46:30.428Z,48.20
2018-09-21T02:48:59.515Z,52.50
2018-09-21T02:51:28.704Z,53.17
2018-09-21T02:53:57.836Z,54.53
2018-09-21T02:56:27.110Z,49.73
2018-09-21T02:58:55.977Z,43.67
2018-09-21T03:01:24.908Z,44.30
2018-09-21T03:03:54.108Z,44.50
2018-09-21T03:06:23.598Z,42.03
2018-09-21T03:08:52.945Z,41.10
2018-09-21T03:11:21.906Z,43.03
2018-09-21T03:13:51.025Z,41.93
2018-09-21T03:16:20.462Z,43.27
2018-09-21T03:18:49.336Z,39.57
2018-09-21T03:21:18.206Z,35.80
2018-09-21T03:23:47.196Z,33.13
2018-09-21T03:26:16.390Z,34.73
2018-09-21T03:28:45.376Z,33.77
2018-09-21T03:31:14.628Z,31.97
2018-09-21T03:33:43.901Z,32.00
2018-09-21T03:36:12.866Z,32.43
2018-09-21T03:38:41.743Z,31.97
2018-09-21T03:41:11.213Z,31.33
2018-09-21T03:43:40.741Z,31.50
2018-09-21T03:46:09.932Z,29.83
2018-09-21T03:48:39.481Z,32.53
2018-09-21T03:51:08.767Z,33.40
2018-09-21T03:53:37.817Z,31.07
2018-09-21T03:56:07.390Z,29.00
2018-09-21T03:58:36.237Z,30.10
2018-09-21T04:01:05.359Z,29.30
2018-09-21T04:03:34.279Z,27.60
2018-09-21T04:06:03.180Z,27.23
2018-09-21T04:08:32.064Z,27.17
2018-09-21T04:11:01.035Z,24.97
2018-09-21T04:13:30.291Z,25.20
2018-09-21T04:15:59.572Z,24.33
2018-09-21T04:18:28.588Z,25.50
2018-09-21T04:20:57.590Z,25.80
2018-09-21T04:23:26.585Z,23.27
2018-09-21T04:25:55.484Z,23.03
2018-09-21T04:28:24.837Z,22.47
2018-09-21T04:30:54.165Z,20.30
2018-09-21T04:33:24.012Z,20.87
2018-09-21T04:35:53.580Z,21.03
2018-09-21T04:38:22.879Z,25.50
2018-09-21T04:40:52.313Z,25.00
2018-09-21T04:43:22.163Z,26.53
2018-09-21T04:45:51.552Z,26.60
2018-09-21T04:48:21.200Z,26.73
2018-09-21T04:50:50.329Z,24.87
2018-09-21T04:53:20.141Z,25.07
2018-09-21T04:55:49.276Z,24.50
2018-09-21T04:58:18.310Z,26.87
2018-09-21T05:00:47.244Z,25.03
2018-09-21T05:03:16.790Z,23.60
2018-09-21T05:05:46.121Z,29.20
2018-09-21T05:08:15.554Z,21.80
2018-09-21T05:10:44.677Z,21.50
2018-09-21T05:13:13.986Z,23.50
2018-09-21T05:15:43.260Z,21.43
2018-09-21T05:18:12.384Z,23.13
2018-09-21T05:20:41.284Z,20.80
2018-09-21T05:23:10.229Z,19.57
2018-09-21T05:25:39.121Z,18.23
2018-09-21T05:28:08.153Z,18.20
2018-09-21T05:30:37.194Z,17.40
2018-09-21T05:33:06.191Z,18.30
2018-09-21T05:35:35.229Z,18.50
2018-09-21T05:38:04.166Z,18.67
2018-09-21T05:40:33.109Z,18.93
2018-09-21T05:43:02.093Z,17.13
2018-09-21T05:45:31.001Z,17.70
2018-09-21T05:47:59.945Z,16.47
2018-09-21T05:50:28.819Z,15.67
2018-09-21T05:52:57.995Z,17.03
2018-09-21T05:55:26.927Z,15.87
2018-09-21T05:57:56.033Z,16.50
2018-09-21T06:00:25.174Z,14.93
2018-09-21T06:02:54.134Z,15.00
2018-09-21T06:05:23.831Z,14.30
2018-09-21T06:07:53.215Z,15.20
2018-09-21T06:10:22.234Z,16.00
2018-09-21T06:12:51.469Z,14.63
2018-09-21T06:15:20.758Z,16.90
2018-09-21T06:17:49.706Z,16.43
2018-09-21T06:20:19.206Z,16.30
2018-09-21T06:22:48.164Z,16.33
2018-09-21T06:25:17.273Z,17.83
2018-09-21T06:27:46.480Z,17.43
2018-09-21T06:30:15.408Z,15.47
2018-09-21T06:32:44.441Z,19.43
2018-09-21T06:35:13.490Z,21.43
2018-09-21T06:37:42.378Z,21.27
2018-09-21T06:40:11.392Z,20.67
2018-09-21T06:42:40.289Z,20.23
2018-09-21T06:45:09.209Z,18.30
2018-09-21T06:47:38.507Z,19.40
2018-09-21T06:50:07.694Z,19.80
2018-09-21T06:52:36.723Z,18.57
2018-09-21T06:55:05.973Z,16.23
2018-09-21T06:57:35.042Z,16.37
2018-09-21T07:00:04.112Z,13.70
2018-09-21T07:02:33.550Z,13.00
2018-09-21T07:05:07.473Z,14.00
2018-09-21T07:07:36.568Z,13.50
2018-09-21T07:10:05.628Z,12.50
2018-09-21T07:12:34.694Z,13.43
2018-09-21T07:15:03.630Z,12.93
2018-09-21T07:17:32.594Z,12.63
2018-09-21T07:20:02.241Z,12.63
2018-09-21T07:22:31.139Z,12.87
2018-09-21T07:25:00.214Z,10.77
2018-09-21T07:27:29.096Z,11.80
2018-09-21T07:29:57.964Z,11.67
2018-09-21T07:32:27.208Z,11.27
2018-09-21T07:34:56.588Z,10.60
2018-09-21T07:37:25.503Z,11.20
2018-09-21T07:39:54.373Z,10.77
2018-09-21T07:42:23.727Z,11.57
2018-09-21T07:44:52.948Z,10.90
2018-09-21T07:47:22.337Z,10.97
2018-09-21T07:49:51.307Z,10.57
2018-09-21T07:52:20.151Z,9.93
2018-09-21T07:54:49.110Z,11.87
2018-09-21T07:57:18.487Z,10.60
2018-09-21T07:59:47.452Z,10.67
2018-09-21T08:02:16.373Z,9.40
2018-09-21T08:04:45.600Z,10.20
2018-09-21T08:07:14.511Z,8.97
2018-09-21T08:09:43.368Z,7.03
2018-09-21T08:12:12.426Z,6.33
2018-09-21T08:14:41.454Z,6.03
2018-09-21T08:17:10.323Z,5.73
2018-09-21T08:19:39.909Z,7.03
2018-09-21T08:22:09.096Z,6.40
2018-09-21T08:24:38.021Z,6.87
2018-09-21T08:27:09.675Z,5.33
2018-09-21T08:29:38.571Z,5.47
2018-09-21T08:32:07.448Z,6.27
2018-09-21T08:34:36.447Z,5.50
2018-09-21T08:37:05.740Z,6.00
2018-09-21T08:39:34.731Z,6.23
2018-09-21T08:42:04.367Z,6.23
2018-09-21T08:44:33.340Z,5.63
2018-09-21T08:47:02.270Z,6.13
2018-09-21T08:49:31.254Z,6.07
2018-09-21T08:52:00.532Z,5.83
2018-09-21T08:54:29.484Z,6.00
2018-09-21T08:56:58.739Z,5.87
2018-09-21T08:59:27.622Z,6.10
2018-09-21T09:01:56.688Z,6.30
2018-09-21T09:04:25.886Z,6.40
2018-09-21T09:06:54.758Z,6.37
2018-09-21T09:09:23.848Z,6.93
2018-09-21T09:11:53.263Z,6.63
2018-09-21T09:14:22.723Z,6.50
2018-09-21T09:16:51.637Z,5.87
2018-09-21T09:19:20.563Z,6.77
2018-09-21T09:21:50.377Z,6.40
2018-09-21T09:24:19.367Z,6.43
2018-09-21T09:26:48.672Z,5.97
2018-09-21T09:29:17.604Z,5.70
2018-09-21T09:31:46.516Z,6.90
2018-09-21T09:34:15.793Z,6.80
2018-09-21T09:36:45.013Z,6.77
2018-09-21T09:39:14.620Z,6.77
2018-09-21T09:41:44.450Z,5.90
2018-09-21T09:44:13.907Z,6.03
2018-09-21T09:46:42.952Z,5.73
2018-09-21T09:49:12.546Z,5.93
2018-09-21T09:51:42.181Z,6.27
2018-09-21T09:54:11.039Z,5.33
2018-09-21T09:56:40.566Z,5.40
2018-09-21T09:59:09.653Z,4.90
2018-09-21T10:01:38.768Z,4.90
2018-09-21T10:04:07.945Z,4.03
2018-09-21T10:06:37.456Z,4.23
2018-09-21T10:09:08.812Z,4.13
2018-09-21T10:11:38.197Z,5.07
2018-09-21T10:14:07.695Z,3.80
2018-09-21T10:16:37.245Z,4.03
2018-09-21T10:19:06.276Z,4.00
2018-09-21T10:21:35.557Z,4.43
2018-09-21T10:24:05.017Z,4.23
2018-09-21T10:26:34.136Z,4.37
2018-09-21T10:29:03.217Z,4.10
2018-09-21T10:31:32.268Z,4.63
2018-09-21T10:34:01.311Z,4.63
2018-09-21T10:36:30.424Z,4.13
2018-09-21T10:38:59.543Z,4.00
2018-09-21T10:41:28.667Z,4.37
2018-09-21T10:43:57.794Z,4.30
2018-09-21T10:46:26.811Z,4.53
2018-09-21T10:48:55.902Z,4.57
2018-09-21T10:51:25.020Z,4.43
2018-09-21T10:53:54.298Z,5.50
2018-09-21T10:56:23.472Z,5.40
2018-09-21T10:58:52.655Z,5.03
2018-09-21T11:01:21.764Z,5.10
2018-09-21T11:03:50.928Z,4.90
2018-09-21T11:06:20.048Z,4.57
2018-09-21T11:08:49.202Z,3.93
2018-09-21T11:11:18.353Z,4.23
2018-09-21T11:13:47.431Z,4.77
2018-09-21T11:16:16.476Z,4.50
2018-09-21T11:18:45.595Z,5.43
2018-09-21T11:21:14.938Z,4.40
2018-09-21T11:23:44.018Z,4.40
2018-09-21T11:26:13.022Z,4.83
2018-09-21T11:28:42.165Z,4.60
2018-09-21T11:31:11.196Z,4.80
2018-09-21T11:33:40.204Z,5.33
2018-09-21T11:36:09.235Z,4.57
2018-09-21T11:38:38.362Z,4.57
2018-09-21T11:41:07.866Z,4.00
2018-09-21T11:43:37.035Z,4.33
2018-09-21T11:46:06.138Z,4.60
2018-09-21T11:48:35.136Z,4.17
2018-09-21T11:51:04.236Z,4.83
2018-09-21T11:53:33.508Z,4.60
2018-09-21T11:56:03.057Z,4.60
2018-09-21T11:58:32.178Z,4.73
2018-09-21T12:01:01.485Z,4.43
2018-09-21T12:03:30.518Z,4.80
2018-09-21T12:05:59.570Z,4.07
2018-09-21T12:08:28.620Z,4.97
2018-09-21T12:10:57.791Z,4.80
2018-09-21T12:13:27.299Z,4.67
2018-09-21T12:15:56.373Z,5.00
2018-09-21T12:18:25.895Z,4.30
2018-09-21T12:20:54.932Z,4.53
2018-09-21T12:23:23.908Z,4.70
2018-09-21T12:25:53.185Z,5.03
2018-09-21T12:28:22.636Z,5.30
2018-09-21T12:30:52.050Z,4.73
2018-09-21T12:33:21.187Z,4.57
2018-09-21T12:35:50.654Z,5.60
2018-09-21T12:38:20.053Z,4.73
2018-09-21T12:40:49.189Z,4.97
2018-09-21T12:43:18.883Z,4.57
2018-09-21T12:45:48.320Z,4.87
2018-09-21T12:48:17.737Z,5.10
2018-09-21T12:50:46.988Z,6.07
2018-09-21T12:53:16.042Z,4.87
2018-09-21T12:55:45.091Z,4.70
2018-09-21T12:58:14.236Z,4.93
2018-09-21T13:00:48.250Z,5.43
2018-09-21T13:03:17.368Z,4.70
2018-09-21T13:05:46.742Z,5.27
2018-09-21T13:08:15.906Z,4.90
2018-09-21T13:10:45.016Z,5.30
2018-09-21T13:13:14.178Z,5.27
2018-09-21T13:15:43.358Z,5.50
2018-09-21T13:18:12.512Z,5.00
2018-09-21T13:20:41.629Z,5.40
2018-09-21T13:23:10.776Z,5.90
2018-09-21T13:25:40.120Z,5.83
2018-09-21T13:28:09.470Z,4.93
2018-09-21T13:30:38.536Z,5.83
2018-09-21T13:33:07.582Z,5.40
2018-09-21T13:35:36.629Z,5.37
2018-09-21T13:38:05.717Z,5.20
2018-09-21T13:40:35.096Z,4.90
2018-09-21T13:43:04.131Z,5.40
2018-09-21T13:45:33.281Z,4.53
2018-09-21T13:48:02.335Z,5.37
2018-09-21T13:50:31.368Z,4.77
2018-09-21T13:53:00.489Z,5.07
2018-09-21T13:55:29.800Z,5.50
2018-09-21T13:57:58.930Z,5.13
2018-09-21T14:00:28.114Z,4.77
2018-09-21T14:02:57.208Z,5.13
2018-09-21T14:05:26.265Z,5.67
2018-09-21T14:07:55.383Z,5.60
2018-09-21T14:10:24.531Z,5.93
2018-09-21T14:12:54.020Z,5.37
2018-09-21T14:15:23.542Z,5.40
2018-09-21T14:17:52.634Z,5.30
2018-09-21T14:20:22.103Z,5.60
2018-09-21T14:22:51.536Z,5.37
2018-09-21T14:25:20.661Z,5.20
2018-09-21T14:27:49.799Z,5.23
2018-09-21T14:30:19.237Z,5.47
2018-09-21T14:32:48.289Z,5.30
2018-09-21T14:35:17.745Z,6.93
2018-09-21T14:37:46.858Z,5.70
2018-09-21T14:40:16.100Z,5.83
2018-09-21T14:42:45.175Z,5.53
2018-09-21T14:45:14.321Z,6.10
2018-09-21T14:47:43.976Z,5.60
2018-09-21T14:50:13.406Z,5.17
2018-09-21T14:52:42.433Z,5.63
2018-09-21T14:55:11.620Z,5.77
2018-09-21T14:57:40.666Z,5.77
2018-09-21T15:00:09.881Z,6.17
2018-09-21T15:02:39.041Z,5.03
2018-09-21T15:05:08.139Z,5.23
2018-09-21T15:07:37.262Z,5.70
2018-09-21T15:10:06.360Z,5.03
2018-09-21T15:12:35.507Z,5.40
2018-09-21T15:15:04.649Z,5.63
2018-09-21T15:17:34.122Z,5.83
2018-09-21T15:20:03.480Z,5.90
2018-09-21T15:22:32.545Z,5.97
2018-09-21T15:25:01.645Z,6.03
2018-09-21T15:27:30.736Z,6.57
2018-09-21T15:29:59.778Z,5.90
2018-09-21T15:32:28.898Z,6.27
2018-09-21T15:34:58.073Z,5.90
2018-09-21T15:37:27.150Z,5.83
2018-09-21T15:39:56.168Z,6.63
2018-09-21T15:42:25.290Z,7.50
2018-09-21T15:44:54.314Z,7.20
2018-09-21T15:47:23.408Z,6.57
2018-09-21T15:49:52.520Z,6.23
2018-09-21T15:52:21.612Z,6.80
2018-09-21T15:54:50.738Z,6.63
2018-09-21T15:57:19.870Z,7.33
2018-09-21T15:59:49.101Z,6.40
2018-09-21T16:02:18.179Z,6.97
2018-09-21T16:04:47.240Z,7.90
2018-09-21T16:07:16.262Z,9.07
2018-09-21T16:09:45.365Z,7.47
2018-09-21T16:12:14.410Z,8.00
2018-09-21T16:14:43.444Z,8.13
2018-09-21T16:17:12.556Z,7.60
2018-09-21T16:19:41.689Z,7.87
2018-09-21T16:22:11.030Z,8.57
2018-09-21T16:24:40.222Z,8.30
2018-09-21T16:27:09.246Z,7.60
2018-09-21T16:29:38.504Z,7.70
2018-09-21T16:32:07.631Z,7.40
2018-09-21T16:34:36.669Z,7.73
2018-09-21T16:37:05.750Z,7.90
2018-09-21T16:39:34.898Z,6.33
2018-09-21T16:42:04.063Z,7.00
2018-09-21T16:44:33.171Z,7.10
2018-09-21T16:47:02.347Z,6.30
2018-09-21T16:49:31.377Z,6.47
2018-09-21T16:52:01.385Z,6.13
2018-09-21T16:54:30.701Z,7.30
2018-09-21T16:56:59.835Z,6.73
2018-09-21T16:59:28.916Z,7.03
2018-09-21T17:01:58.032Z,5.90
2018-09-21T17:04:27.266Z,7.23
2018-09-21T17:06:56.305Z,7.20
2018-09-21T17:09:25.749Z,7.53
2018-09-21T17:11:55.268Z,12.30
2018-09-21T17:14:24.429Z,7.37
2018-09-21T17:16:53.642Z,7.43
2018-09-21T17:19:23.084Z,7.20
2018-09-21T17:21:52.216Z,7.83
2018-09-21T17:24:21.310Z,7.90
2018-09-21T17:26:50.421Z,8.00
2018-09-21T17:29:19.551Z,8.50
2018-09-21T17:31:49.532Z,7.50
2018-09-21T17:34:18.969Z,7.83
2018-09-21T17:36:48.014Z,8.17
2018-09-21T17:39:17.179Z,8.60
2018-09-21T17:41:46.293Z,7.53
2018-09-21T17:44:15.348Z,8.80
2018-09-21T17:46:44.474Z,12.80
2018-09-21T17:49:13.589Z,7.43
2018-09-21T17:51:43.144Z,9.00
2018-09-21T17:54:12.234Z,8.20
2018-09-21T17:56:41.758Z,9.20
2018-09-21T17:59:10.803Z,8.53
2018-09-21T18:01:40.016Z,8.93
2018-09-21T18:04:09.091Z,8.53
2018-09-21T18:06:38.195Z,8.30
2018-09-21T18:09:09.159Z,8.57
2018-09-21T18:11:38.386Z,8.57
2018-09-21T18:14:07.478Z,10.10
2018-09-21T18:16:36.619Z,7.47
2018-09-21T18:19:05.766Z,7.60
2018-09-21T18:21:34.890Z,8.67
2018-09-21T18:24:04.004Z,8.67
2018-09-21T18:26:32.968Z,9.43
2018-09-21T18:29:01.951Z,8.93
2018-09-21T18:31:32.032Z,9.70
2018-09-21T18:34:01.221Z,8.80
2018-09-21T18:36:30.449Z,8.23
2018-09-21T18:38:59.552Z,8.30
2018-09-21T18:41:28.670Z,9.60
2018-09-21T18:43:57.852Z,9.57
2018-09-21T18:46:26.889Z,10.80
2018-09-21T18:48:56.173Z,10.40
2018-09-21T18:51:25.240Z,9.90
2018-09-21T18:53:54.374Z,10.60
2018-09-21T18:56:23.399Z,8.63
2018-09-21T18:58:52.528Z,9.40
2018-09-21T19:01:21.647Z,9.60
2018-09-21T19:03:50.704Z,9.80
2018-09-21T19:06:19.742Z,10.43
2018-09-21T19:08:48.728Z,10.33
2018-09-21T19:11:17.884Z,11.00
2018-09-21T19:13:47.048Z,10.37
2018-09-21T19:16:16.104Z,11.20
2018-09-21T19:18:45.528Z,11.20
2018-09-21T19:21:14.568Z,12.00
2018-09-21T19:23:44.188Z,11.87
2018-09-21T19:26:13.244Z,10.77
2018-09-21T19:28:42.379Z,11.17
2018-09-21T19:31:12.154Z,12.10
2018-09-21T19:33:41.947Z,12.57
2018-09-21T19:36:10.996Z,13.93
2018-09-21T19:38:40.232Z,12.63
2018-09-21T19:41:09.256Z,13.07
2018-09-21T19:43:38.314Z,14.17
2018-09-21T19:46:07.596Z,13.50
2018-09-21T19:48:36.686Z,13.37
2018-09-21T19:51:06.084Z,13.47
2018-09-21T19:53:35.111Z,13.20
2018-09-21T19:56:04.146Z,12.77
2018-09-21T19:58:33.194Z,13.60
2018-09-21T20:01:02.280Z,13.47
2018-09-21T20:03:31.769Z,13.40
2018-09-21T20:06:00.937Z,16.57
2018-09-21T20:08:29.971Z,13.83
2018-09-21T20:10:59.184Z,14.90
2018-09-21T20:13:28.187Z,14.90
2018-09-21T20:15:57.711Z,14.73
2018-09-21T20:18:26.796Z,13.77
2018-09-21T20:20:56.181Z,14.70
2018-09-21T20:23:25.276Z,16.33
2018-09-21T20:25:54.422Z,13.90
2018-09-21T20:28:23.521Z,13.83
2018-09-21T20:30:57.647Z,14.50
2018-09-21T20:33:28.322Z,14.80
2018-09-21T20:35:58.444Z,14.00
2018-09-21T20:38:28.688Z,15.83
2018-09-21T20:40:58.252Z,14.20
2018-09-21T20:43:27.472Z,15.23
2018-09-21T20:45:56.708Z,15.00
2018-09-21T20:48:26.413Z,16.83
2018-09-21T20:50:55.555Z,14.83
2018-09-21T20:53:24.651Z,15.23
2018-09-21T20:55:54.024Z,15.67
2018-09-21T20:58:23.043Z,15.87
2018-09-21T21:00:52.134Z,15.83
2018-09-21T21:03:21.281Z,15.97
2018-09-21T21:05:50.459Z,16.77
2018-09-21T21:08:19.752Z,16.33
2018-09-21T21:10:48.848Z,17.07
2018-09-21T21:13:18.218Z,17.70
2018-09-21T21:15:47.769Z,16.73
2018-09-21T21:18:16.799Z,15.27
2018-09-21T21:20:45.997Z,18.27
2018-09-21T21:23:15.012Z,18.30
2018-09-21T21:25:44.144Z,18.17
2018-09-21T21:28:13.281Z,16.70
2018-09-21T21:30:42.335Z,17.60
2018-09-21T21:33:11.519Z,19.10
2018-09-21T21:35:40.554Z,17.77
2018-09-21T21:38:09.654Z,18.60
2018-09-21T21:40:39.296Z,19.20
2018-09-21T21:43:08.734Z,19.07
2018-09-21T21:45:37.748Z,18.77
2018-09-21T21:48:06.868Z,20.23
2018-09-21T21:50:36.034Z,23.73
2018-09-21T21:53:05.158Z,25.37
2018-09-21T21:55:34.243Z,25.47
2018-09-21T21:58:03.305Z,24.10
2018-09-21T22:00:37.597Z,22.40
2018-09-21T22:03:06.750Z,24.30
2018-09-21T22:05:35.785Z,24.20
2018-09-21T22:08:04.763Z,23.07
2018-09-21T22:10:33.989Z,24.73
2018-09-21T22:13:08.066Z,26.57
2018-09-21T22:15:37.196Z,26.70
2018-09-21T22:18:06.461Z,29.07
2018-09-21T22:20:35.502Z,29.17
2018-09-21T22:23:04.558Z,30.97
2018-09-21T22:25:33.612Z,32.77
2018-09-21T22:28:02.732Z,30.80
2018-09-21T22:30:32.170Z,32.70
2018-09-21T22:33:01.273Z,35.63
2018-09-21T22:35:30.595Z,36.67
2018-09-21T22:37:59.790Z,36.53
2018-09-21T22:40:28.774Z,38.23
2018-09-21T22:42:58.063Z,37.47
2018-09-21T22:45:27.240Z,36.87
2018-09-21T22:47:56.325Z,36.53
2018-09-21T22:50:25.372Z,38.90
2018-09-21T22:52:54.750Z,35.60
2018-09-21T22:55:24.723Z,35.87
2018-09-21T22:57:53.874Z,34.13
2018-09-21T23:00:23.031Z,33.77
2018-09-21T23:02:52.177Z,32.87
2018-09-21T23:05:21.350Z,34.47
2018-09-21T23:07:50.384Z,31.90
2018-09-21T23:10:19.407Z,32.40
2018-09-21T23:12:48.733Z,31.53
2018-09-21T23:15:17.847Z,31.83
2018-09-21T23:17:46.955Z,32.17
2018-09-21T23:20:16.071Z,33.20
2018-09-21T23:22:45.494Z,35.10
2018-09-21T23:25:14.606Z,32.80
2018-09-21T23:27:43.740Z,35.47
2018-09-21T23:30:12.826Z,33.07
2018-09-21T23:32:41.910Z,34.73
2018-09-21T23:35:10.931Z,35.23
2018-09-21T23:37:40.109Z,35.40
2018-09-21T23:40:09.248Z,37.83
2018-09-21T23:42:38.389Z,38.10
2018-09-21T23:45:07.892Z,36.77
2018-09-21T23:47:36.986Z,37.37
2018-09-21T23:50:06.027Z,39.50
2018-09-21T23:52:35.550Z,37.03
2018-09-21T23:55:04.742Z,36.73
2018-09-21T23:57:34.102Z,36.83
